sensor_id;sensor_type;location;lat;lon;timestamp;pressure;altitude;pressure_sealevel;temperature;humidity
17450;BME280;8842;51.244;7.102;2023-01-30T00:00:02;99719.04;;;3.11;100.00
17450;BME280;8842;51.244;7.102;2023-01-30T00:05:07;99711.87;;;3.05;100.00
17450;BME280;8842;51.244;7.102;2023-01-30T00:15:23;99661.50;;;3.17;100.00
17450;BME280;8842;51.244;7.102;2023-01-30T00:25:39;99688.25;;;3.35;100.00
17450;BME280;8842;51.244;7.102;2023-01-30T00:30:43;99681.94;;;3.39;100.00
17450;BME280;8842;51.244;7.102;2023-01-30T00:35:48;99676.01;;;3.54;100.00
17450;BME280;8842;51.244;7.102;2023-01-30T00:40:53;99667.89;;;3.50;100.00
17450;BME280;8842;51.244;7.102;2023-01-30T00:45:57;99653.90;;;3.49;100.00
17450;BME280;8842;51.244;7.102;2023-01-30T00:51:20;99651.58;;;3.52;100.00
17450;BME280;8842;51.244;7.102;2023-01-30T00:56:24;99644.33;;;3.48;100.00
17450;BME280;8842;51.244;7.102;2023-01-30T01:06:40;99604.31;;;3.62;100.00
17450;BME280;8842;51.244;7.102;2023-01-30T01:11:45;99615.44;;;3.67;100.00
17450;BME280;8842;51.244;7.102;2023-01-30T01:22:00;99608.44;;;3.76;100.00
17450;BME280;8842;51.244;7.102;2023-01-30T01:32:16;99581.52;;;3.89;100.00
17450;BME280;8842;51.244;7.102;2023-01-30T01:42:37;99579.05;;;3.95;100.00
17450;BME280;8842;51.244;7.102;2023-01-30T02:08:43;99560.78;;;4.10;100.00
17450;BME280;8842;51.244;7.102;2023-01-30T02:19:01;99539.08;;;4.24;100.00
17450;BME280;8842;51.244;7.102;2023-01-30T02:29:59;99522.97;;;4.22;100.00
17450;BME280;8842;51.244;7.102;2023-01-30T02:40:25;99500.33;;;4.19;100.00
17450;BME280;8842;51.244;7.102;2023-01-30T02:55:57;99481.31;;;4.31;100.00
17450;BME280;8842;51.244;7.102;2023-01-30T03:06:51;99463.70;;;4.33;100.00
17450;BME280;8842;51.244;7.102;2023-01-30T03:22:26;99458.95;;;4.40;100.00
17450;BME280;8842;51.244;7.102;2023-01-30T03:32:42;99453.30;;;4.47;100.00
17450;BME280;8842;51.244;7.102;2023-01-30T03:42:58;99446.72;;;4.47;100.00
17450;BME280;8842;51.244;7.102;2023-01-30T03:53:13;99440.14;;;4.47;100.00
17450;BME280;8842;51.244;7.102;2023-01-30T04:03:29;99408.11;;;4.56;100.00
17450;BME280;8842;51.244;7.102;2023-01-30T04:13:44;99388.50;;;4.70;100.00
17450;BME280;8842;51.244;7.102;2023-01-30T04:24:05;99382.47;;;4.68;100.00
17450;BME280;8842;51.244;7.102;2023-01-30T04:34:23;99383.70;;;4.70;100.00
17450;BME280;8842;51.244;7.102;2023-01-30T04:39:27;99378.23;;;4.81;100.00
17450;BME280;8842;51.244;7.102;2023-01-30T04:49:48;99386.32;;;4.85;100.00
17450;BME280;8842;51.244;7.102;2023-01-30T05:05:18;99375.80;;;4.85;100.00
17450;BME280;8842;51.244;7.102;2023-01-30T05:15:36;99358.53;;;4.88;100.00
17450;BME280;8842;51.244;7.102;2023-01-30T05:20:41;99341.77;;;4.82;100.00
17450;BME280;8842;51.244;7.102;2023-01-30T05:31:01;99338.69;;;4.98;100.00
17450;BME280;8842;51.244;7.102;2023-01-30T05:41:20;99328.95;;;5.07;100.00
17450;BME280;8842;51.244;7.102;2023-01-30T05:51:39;99330.58;;;5.17;100.00
17450;BME280;8842;51.244;7.102;2023-01-30T06:01:54;99301.34;;;5.14;100.00
17450;BME280;8842;51.244;7.102;2023-01-30T06:12:12;99327.70;;;5.28;100.00
17450;BME280;8842;51.244;7.102;2023-01-30T06:22:27;99333.76;;;5.37;100.00
17450;BME280;8842;51.244;7.102;2023-01-30T06:32:49;99360.88;;;5.46;100.00
17450;BME280;8842;51.244;7.102;2023-01-30T06:43:07;99340.39;;;5.44;100.00
17450;BME280;8842;51.244;7.102;2023-01-30T06:53:25;99349.64;;;5.58;100.00
17450;BME280;8842;51.244;7.102;2023-01-30T07:03:45;99378.80;;;5.62;100.00
17450;BME280;8842;51.244;7.102;2023-01-30T07:14:02;99368.59;;;5.72;100.00
17450;BME280;8842;51.244;7.102;2023-01-30T07:29:30;99368.68;;;5.93;100.00
17450;BME280;8842;51.244;7.102;2023-01-30T07:39:46;99366.23;;;5.90;100.00
17450;BME280;8842;51.244;7.102;2023-01-30T07:50:03;99385.91;;;6.05;100.00
17450;BME280;8842;51.244;7.102;2023-01-30T08:00:21;99400.05;;;6.11;100.00
17450;BME280;8842;51.244;7.102;2023-01-30T08:10:37;99397.05;;;6.25;100.00
17450;BME280;8842;51.244;7.102;2023-01-30T08:20:52;99414.67;;;6.17;100.00
17450;BME280;8842;51.244;7.102;2023-01-30T08:46:48;99428.17;;;6.48;100.00
17450;BME280;8842;51.244;7.102;2023-01-30T08:57:04;99425.34;;;6.51;100.00
17450;BME280;8842;51.244;7.102;2023-01-30T09:07:21;99447.77;;;6.51;100.00
17450;BME280;8842;51.244;7.102;2023-01-30T09:17:37;99413.45;;;6.37;100.00
17450;BME280;8842;51.244;7.102;2023-01-30T09:27:52;99423.45;;;6.39;100.00
17450;BME280;8842;51.244;7.102;2023-01-30T09:43:32;99460.74;;;6.33;100.00
17450;BME280;8842;51.244;7.102;2023-01-30T09:54:00;99469.30;;;6.29;100.00
17450;BME280;8842;51.244;7.102;2023-01-30T10:04:21;99453.27;;;6.18;100.00
17450;BME280;8842;51.244;7.102;2023-01-30T10:14:48;99479.01;;;6.22;100.00
17450;BME280;8842;51.244;7.102;2023-01-30T10:20:12;99481.34;;;6.26;100.00
17450;BME280;8842;51.244;7.102;2023-01-30T10:30:37;99483.06;;;6.27;100.00
17450;BME280;8842;51.244;7.102;2023-01-30T10:46:17;99497.55;;;6.20;100.00
17450;BME280;8842;51.244;7.102;2023-01-30T11:02:05;99498.20;;;6.24;100.00
17450;BME280;8842;51.244;7.102;2023-01-30T11:12:20;99510.08;;;6.31;100.00
17450;BME280;8842;51.244;7.102;2023-01-30T11:22:46;99492.61;;;6.44;100.00
17450;BME280;8842;51.244;7.102;2023-01-30T11:33:11;99503.08;;;6.45;100.00
17450;BME280;8842;51.244;7.102;2023-01-30T11:43:34;99501.12;;;6.63;100.00
17450;BME280;8842;51.244;7.102;2023-01-30T11:53:56;99499.25;;;6.72;100.00
17450;BME280;8842;51.244;7.102;2023-01-30T12:04:15;99496.14;;;6.86;100.00
17450;BME280;8842;51.244;7.102;2023-01-30T12:14:45;99491.42;;;6.77;100.00
17450;BME280;8842;51.244;7.102;2023-01-30T12:25:12;99516.23;;;6.96;100.00
17450;BME280;8842;51.244;7.102;2023-01-30T12:35:51;99501.61;;;6.83;100.00
17450;BME280;8842;51.244;7.102;2023-01-30T12:46:21;99499.34;;;7.05;100.00
17450;BME280;8842;51.244;7.102;2023-01-30T12:51:35;99500.20;;;7.06;100.00
17450;BME280;8842;51.244;7.102;2023-01-30T13:02:32;99504.33;;;7.17;100.00
17450;BME280;8842;51.244;7.102;2023-01-30T13:12:56;99531.68;;;7.23;100.00
17450;BME280;8842;51.244;7.102;2023-01-30T13:23:23;99541.84;;;7.50;100.00
17450;BME280;8842;51.244;7.102;2023-01-30T13:33:44;99546.53;;;7.66;100.00
17450;BME280;8842;51.244;7.102;2023-01-30T13:44:16;99573.75;;;7.61;100.00
17450;BME280;8842;51.244;7.102;2023-01-30T14:16:49;99594.98;;;7.59;100.00
17450;BME280;8842;51.244;7.102;2023-01-30T14:27:23;99613.11;;;7.44;100.00
17450;BME280;8842;51.244;7.102;2023-01-30T14:32:35;99624.52;;;7.38;100.00
17450;BME280;8842;51.244;7.102;2023-01-30T14:54:06;99636.21;;;7.48;100.00
17450;BME280;8842;51.244;7.102;2023-01-30T15:15:07;99687.69;;;7.06;100.00
17450;BME280;8842;51.244;7.102;2023-01-30T15:20:27;99700.28;;;6.94;100.00
17450;BME280;8842;51.244;7.102;2023-01-30T15:30:52;99703.98;;;7.05;100.00
17450;BME280;8842;51.244;7.102;2023-01-30T15:41:10;99730.30;;;7.00;100.00
17450;BME280;8842;51.244;7.102;2023-01-30T15:51:30;99745.09;;;7.02;100.00
17450;BME280;8842;51.244;7.102;2023-01-30T16:02:03;99770.55;;;7.03;100.00
17450;BME280;8842;51.244;7.102;2023-01-30T16:12:29;99790.84;;;7.03;100.00
17450;BME280;8842;51.244;7.102;2023-01-30T16:17:34;99797.22;;;6.99;100.00
17450;BME280;8842;51.244;7.102;2023-01-30T16:27:52;99813.90;;;6.92;100.00
17450;BME280;8842;51.244;7.102;2023-01-30T16:38:32;99841.87;;;6.88;100.00
17450;BME280;8842;51.244;7.102;2023-01-30T16:48:49;99843.25;;;6.79;100.00
17450;BME280;8842;51.244;7.102;2023-01-30T16:59:13;99863.47;;;6.72;100.00
17450;BME280;8842;51.244;7.102;2023-01-30T17:04:22;99864.17;;;6.67;100.00
17450;BME280;8842;51.244;7.102;2023-01-30T17:15:25;99887.55;;;6.66;100.00
17450;BME280;8842;51.244;7.102;2023-01-30T17:25:48;99901.81;;;6.46;100.00
17450;BME280;8842;51.244;7.102;2023-01-30T17:41:27;99926.71;;;6.49;100.00
17450;BME280;8842;51.244;7.102;2023-01-30T17:51:46;99935.57;;;6.48;100.00
17450;BME280;8842;51.244;7.102;2023-01-30T18:02:02;99954.73;;;6.43;100.00
17450;BME280;8842;51.244;7.102;2023-01-30T18:07:10;99958.47;;;6.39;100.00
17450;BME280;8842;51.244;7.102;2023-01-30T18:17:26;99974.83;;;6.37;100.00
17450;BME280;8842;51.244;7.102;2023-01-30T18:27:44;99982.61;;;6.32;100.00
17450;BME280;8842;51.244;7.102;2023-01-30T18:32:50;99989.52;;;6.26;100.00
17450;BME280;8842;51.244;7.102;2023-01-30T18:37:54;99992.75;;;6.31;100.00
17450;BME280;8842;51.244;7.102;2023-01-30T18:42:58;99996.70;;;6.31;100.00
17450;BME280;8842;51.244;7.102;2023-01-30T18:53:16;99993.76;;;6.37;100.00
17450;BME280;8842;51.244;7.102;2023-01-30T19:08:45;100014.16;;;6.25;100.00
17450;BME280;8842;51.244;7.102;2023-01-30T19:19:02;100013.79;;;6.06;100.00
17450;BME280;8842;51.244;7.102;2023-01-30T19:34:31;100041.01;;;5.80;100.00
17450;BME280;8842;51.244;7.102;2023-01-30T19:39:35;100060.20;;;5.73;100.00
17450;BME280;8842;51.244;7.102;2023-01-30T19:44:39;100061.16;;;5.62;100.00
17450;BME280;8842;51.244;7.102;2023-01-30T19:54:55;100070.05;;;5.51;100.00
17450;BME280;8842;51.244;7.102;2023-01-30T20:05:10;100083.40;;;5.38;100.00
17450;BME280;8842;51.244;7.102;2023-01-30T20:15:27;100110.29;;;5.26;100.00
17450;BME280;8842;51.244;7.102;2023-01-30T20:20:31;100115.80;;;5.30;100.00
17450;BME280;8842;51.244;7.102;2023-01-30T20:30:50;100124.42;;;5.24;100.00
17450;BME280;8842;51.244;7.102;2023-01-30T20:46:20;100127.66;;;5.30;100.00
17450;BME280;8842;51.244;7.102;2023-01-30T20:56:38;100138.50;;;5.33;100.00
17450;BME280;8842;51.244;7.102;2023-01-30T21:06:54;100153.28;;;5.17;100.00
17450;BME280;8842;51.244;7.102;2023-01-30T21:17:09;100155.84;;;5.18;100.00
17450;BME280;8842;51.244;7.102;2023-01-30T21:27:26;100166.20;;;5.03;100.00
17450;BME280;8842;51.244;7.102;2023-01-30T21:37:43;100174.03;;;5.04;100.00
17450;BME280;8842;51.244;7.102;2023-01-30T21:48:22;100170.19;;;4.81;100.00
17450;BME280;8842;51.244;7.102;2023-01-30T21:53:28;100178.02;;;4.63;100.00
17450;BME280;8842;51.244;7.102;2023-01-30T22:03:46;100170.31;;;4.58;100.00
17450;BME280;8842;51.244;7.102;2023-01-30T22:14:05;100186.47;;;4.49;100.00
17450;BME280;8842;51.244;7.102;2023-01-30T22:24:23;100192.63;;;4.48;100.00
17450;BME280;8842;51.244;7.102;2023-01-30T22:34:39;100205.08;;;4.55;100.00
17450;BME280;8842;51.244;7.102;2023-01-30T22:39:43;100202.39;;;4.56;100.00
17450;BME280;8842;51.244;7.102;2023-01-30T22:49:59;100203.08;;;4.71;100.00
17450;BME280;8842;51.244;7.102;2023-01-30T23:00:15;100212.67;;;4.72;100.00
17450;BME280;8842;51.244;7.102;2023-01-30T23:10:38;100212.10;;;4.76;100.00
17450;BME280;8842;51.244;7.102;2023-01-30T23:20:54;100210.34;;;4.76;100.00
17450;BME280;8842;51.244;7.102;2023-01-30T23:31:14;100208.80;;;4.81;100.00
17450;BME280;8842;51.244;7.102;2023-01-30T23:41:31;100214.28;;;4.76;100.00
17450;BME280;8842;51.244;7.102;2023-01-30T23:51:48;100213.74;;;4.78;100.00
